Cape Bradley — V7FK7 — position and weather

sailwx.info

Track history (hours):
 
Tides and Currents Weather Stations Pressure Air Temp Water Temp Dewpoint Dewpoint Depression Visibility Wind Speed Wind Dir Waves Ship Positions

Cape Bradley

Last reported at 2017-Oct-23 03:40 UTC. Time now 2017-Oct-23 06:06 UTC.
Position N 36°24' E 013°53'.

Length 176 m; draft 9.5 m.

Type: Tanker. MMSI: 538001963.

Date/timePositionNaut miles runAvg speedWind from/ knotsBaromVisibWave heightAir tempDewpointWater temp
2017-Oct-23 03:40N 36°24' E 013°53'412.1
2017-Oct-23 03:23N 36°23' E 013°58'512.0
2017-Oct-23 02:58N 36°22' E 014°03'612.0
2017-Oct-23 02:30N 36°20' E 014°10'612.2
2017-Oct-23 02:00N 36°18' E 014°17'612.2
2017-Oct-23 01:30N 36°17' E 014°25'612.1
2017-Oct-23 01:00N 36°16' E 014°32'612.2
2017-Oct-23 00:30N 36°14' E 014°39'612.4
2017-Oct-22 23:59N 36°11' E 014°46'  
Track history (hours):
 
Tides and Currents Weather Stations Pressure Air Temp Water Temp Dewpoint Dewpoint Depression Visibility Wind Speed Wind Dir Waves Ship Positions

Cape Bradley

Last reported at 2017-Oct-23 03:40 UTC. Time now 2017-Oct-23 06:06 UTC.
Position N 36°24' E 013°53'.

Length 176 m; draft 9.5 m.

Type: Tanker. MMSI: 538001963.

Date/timePositionNaut miles runAvg speedWind from/ knotsBaromVisibWave heightAir tempDewpointWater temp
2017-Oct-23 03:40N 36°24' E 013°53'412.1
2017-Oct-23 03:23N 36°23' E 013°58'512.0
2017-Oct-23 02:58N 36°22' E 014°03'612.0
2017-Oct-23 02:30N 36°20' E 014°10'612.2
2017-Oct-23 02:00N 36°18' E 014°17'612.2
2017-Oct-23 01:30N 36°17' E 014°25'612.1
2017-Oct-23 01:00N 36°16' E 014°32'612.2
2017-Oct-23 00:30N 36°14' E 014°39'612.4
2017-Oct-22 23:59N 36°11' E 014°46'  

Dump ship's entire track history